sensor_id;sensor_type;location;lat;lon;timestamp;P1;durP1;ratioP1;P2;durP2;ratioP2
39782;SDS011;25462;51.164;17.100;2023-04-01T00:03:36;5.20;;;2.10;;
39782;SDS011;25462;51.164;17.100;2023-04-01T00:08:41;6.30;;;2.40;;
39782;SDS011;25462;51.164;17.100;2023-04-01T00:13:45;6.30;;;2.70;;
39782;SDS011;25462;51.164;17.100;2023-04-01T00:18:49;5.30;;;2.70;;
39782;SDS011;25462;51.164;17.100;2023-04-01T00:23:53;6.40;;;3.40;;
39782;SDS011;25462;51.164;17.100;2023-04-01T00:28:58;6.80;;;4.20;;
39782;SDS011;25462;51.164;17.100;2023-04-01T00:34:02;5.60;;;3.50;;
39782;SDS011;25462;51.164;17.100;2023-04-01T00:39:07;7.70;;;4.50;;
39782;SDS011;25462;51.164;17.100;2023-04-01T00:44:14;7.10;;;4.20;;
39782;SDS011;25462;51.164;17.100;2023-04-01T00:49:30;8.80;;;4.60;;
39782;SDS011;25462;51.164;17.100;2023-04-01T00:54:45;7.60;;;4.40;;
39782;SDS011;25462;51.164;17.100;2023-04-01T00:59:50;7.80;;;4.60;;
39782;SDS011;25462;51.164;17.100;2023-04-01T01:04:56;7.60;;;4.70;;
39782;SDS011;25462;51.164;17.100;2023-04-01T01:36:26;12.60;;;6.80;;
39782;SDS011;25462;51.164;17.100;2023-04-01T01:41:33;10.00;;;6.40;;
39782;SDS011;25462;51.164;17.100;2023-04-01T01:46:38;15.80;;;8.20;;
39782;SDS011;25462;51.164;17.100;2023-04-01T01:51:43;9.90;;;6.40;;
39782;SDS011;25462;51.164;17.100;2023-04-01T01:56:49;10.30;;;6.90;;
39782;SDS011;25462;51.164;17.100;2023-04-01T02:01:57;12.30;;;6.70;;
39782;SDS011;25462;51.164;17.100;2023-04-01T02:07:02;10.00;;;6.70;;
39782;SDS011;25462;51.164;17.100;2023-04-01T02:12:11;11.00;;;6.80;;
39782;SDS011;25462;51.164;17.100;2023-04-01T02:17:17;12.80;;;6.30;;
39782;SDS011;25462;51.164;17.100;2023-04-01T02:22:23;12.10;;;6.30;;
39782;SDS011;25462;51.164;17.100;2023-04-01T02:27:30;9.20;;;6.30;;
39782;SDS011;25462;51.164;17.100;2023-04-01T02:32:34;11.10;;;5.60;;
39782;SDS011;25462;51.164;17.100;2023-04-01T02:37:41;9.70;;;6.40;;
39782;SDS011;25462;51.164;17.100;2023-04-01T02:42:46;10.00;;;5.10;;
39782;SDS011;25462;51.164;17.100;2023-04-01T02:47:49;8.40;;;5.30;;
39782;SDS011;25462;51.164;17.100;2023-04-01T02:52:53;8.30;;;5.20;;
39782;SDS011;25462;51.164;17.100;2023-04-01T02:57:57;8.10;;;4.80;;
39782;SDS011;25462;51.164;17.100;2023-04-01T03:03:03;8.30;;;4.40;;
39782;SDS011;25462;51.164;17.100;2023-04-01T03:08:07;7.40;;;4.00;;
39782;SDS011;25462;51.164;17.100;2023-04-01T03:13:11;7.00;;;3.50;;
39782;SDS011;25462;51.164;17.100;2023-04-01T03:18:15;7.00;;;3.50;;
39782;SDS011;25462;51.164;17.100;2023-04-01T03:23:20;7.10;;;3.10;;
39782;SDS011;25462;51.164;17.100;2023-04-01T03:28:25;8.80;;;3.50;;
39782;SDS011;25462;51.164;17.100;2023-04-01T03:33:29;8.70;;;2.90;;
39782;SDS011;25462;51.164;17.100;2023-04-01T03:38:33;6.10;;;3.50;;
39782;SDS011;25462;51.164;17.100;2023-04-01T03:43:38;7.60;;;2.80;;
39782;SDS011;25462;51.164;17.100;2023-04-01T03:48:41;9.30;;;3.60;;
39782;SDS011;25462;51.164;17.100;2023-04-01T03:53:45;6.40;;;2.40;;
39782;SDS011;25462;51.164;17.100;2023-04-01T03:58:49;4.60;;;2.60;;
39782;SDS011;25462;51.164;17.100;2023-04-01T04:03:53;6.50;;;2.70;;
39782;SDS011;25462;51.164;17.100;2023-04-01T04:08:57;8.40;;;2.90;;
39782;SDS011;25462;51.164;17.100;2023-04-01T04:14:02;5.90;;;2.60;;
39782;SDS011;25462;51.164;17.100;2023-04-01T04:19:06;5.20;;;2.40;;
39782;SDS011;25462;51.164;17.100;2023-04-01T04:24:10;5.80;;;2.50;;
39782;SDS011;25462;51.164;17.100;2023-04-01T04:29:36;7.00;;;2.60;;
39782;SDS011;25462;51.164;17.100;2023-04-01T04:34:40;6.50;;;2.70;;
39782;SDS011;25462;51.164;17.100;2023-04-01T04:39:44;7.40;;;3.00;;
39782;SDS011;25462;51.164;17.100;2023-04-01T04:44:48;6.50;;;2.30;;
39782;SDS011;25462;51.164;17.100;2023-04-01T04:49:52;3.40;;;1.90;;
39782;SDS011;25462;51.164;17.100;2023-04-01T04:54:56;3.40;;;2.20;;
39782;SDS011;25462;51.164;17.100;2023-04-01T04:59:59;3.60;;;2.00;;
39782;SDS011;25462;51.164;17.100;2023-04-01T05:05:16;5.60;;;2.40;;
39782;SDS011;25462;51.164;17.100;2023-04-01T05:10:21;4.70;;;2.40;;
39782;SDS011;25462;51.164;17.100;2023-04-01T05:15:25;7.00;;;2.20;;
39782;SDS011;25462;51.164;17.100;2023-04-01T05:20:30;5.00;;;1.90;;
39782;SDS011;25462;51.164;17.100;2023-04-01T05:25:37;6.20;;;2.40;;
39782;SDS011;25462;51.164;17.100;2023-04-01T05:30:42;3.90;;;2.30;;
39782;SDS011;25462;51.164;17.100;2023-04-01T05:36:32;3.50;;;2.00;;
39782;SDS011;25462;51.164;17.100;2023-04-01T05:41:29;4.90;;;2.50;;
39782;SDS011;25462;51.164;17.100;2023-04-01T05:46:33;6.50;;;2.80;;
39782;SDS011;25462;51.164;17.100;2023-04-01T05:51:53;4.80;;;2.30;;
39782;SDS011;25462;51.164;17.100;2023-04-01T05:56:58;3.80;;;2.30;;
39782;SDS011;25462;51.164;17.100;2023-04-01T06:02:02;5.10;;;2.30;;
39782;SDS011;25462;51.164;17.100;2023-04-01T06:07:13;5.50;;;2.60;;
39782;SDS011;25462;51.164;17.100;2023-04-01T06:56:55;6.70;;;3.30;;
39782;SDS011;25462;51.164;17.100;2023-04-01T07:07:21;6.00;;;3.70;;
39782;SDS011;25462;51.164;17.100;2023-04-01T07:12:46;7.10;;;3.60;;
39782;SDS011;25462;51.164;17.100;2023-04-01T07:23:32;10.00;;;4.00;;
39782;SDS011;25462;51.164;17.100;2023-04-01T07:28:57;5.60;;;3.90;;
39782;SDS011;25462;51.164;17.100;2023-04-01T07:34:19;5.70;;;3.30;;
39782;SDS011;25462;51.164;17.100;2023-04-01T07:39:50;5.90;;;3.20;;
39782;SDS011;25462;51.164;17.100;2023-04-01T07:45:20;4.90;;;3.50;;
39782;SDS011;25462;51.164;17.100;2023-04-01T08:01:40;4.30;;;2.70;;
39782;SDS011;25462;51.164;17.100;2023-04-01T08:06:58;8.90;;;3.10;;
39782;SDS011;25462;51.164;17.100;2023-04-01T08:17:39;6.30;;;2.80;;
39782;SDS011;25462;51.164;17.100;2023-04-01T08:22:51;4.40;;;2.40;;
39782;SDS011;25462;51.164;17.100;2023-04-01T08:28:11;7.30;;;2.60;;
39782;SDS011;25462;51.164;17.100;2023-04-01T08:33:24;6.40;;;2.90;;
39782;SDS011;25462;51.164;17.100;2023-04-01T08:38:44;6.20;;;2.70;;
39782;SDS011;25462;51.164;17.100;2023-04-01T08:44:16;5.90;;;2.60;;
39782;SDS011;25462;51.164;17.100;2023-04-01T09:06:10;6.80;;;2.60;;
39782;SDS011;25462;51.164;17.100;2023-04-01T09:27:57;6.00;;;2.50;;
39782;SDS011;25462;51.164;17.100;2023-04-01T09:38:57;5.90;;;2.40;;
39782;SDS011;25462;51.164;17.100;2023-04-01T10:21:57;2.10;;;0.80;;
39782;SDS011;25462;51.164;17.100;2023-04-01T11:00:31;3.70;;;2.10;;
39782;SDS011;25462;51.164;17.100;2023-04-01T11:06:37;5.10;;;2.50;;
39782;SDS011;25462;51.164;17.100;2023-04-01T11:12:16;3.30;;;1.90;;
39782;SDS011;25462;51.164;17.100;2023-04-01T11:31:00;2.90;;;1.50;;
39782;SDS011;25462;51.164;17.100;2023-04-01T11:36:39;2.70;;;1.70;;
39782;SDS011;25462;51.164;17.100;2023-04-01T11:41:56;4.60;;;1.80;;
39782;SDS011;25462;51.164;17.100;2023-04-01T12:14:54;3.80;;;1.80;;
39782;SDS011;25462;51.164;17.100;2023-04-01T12:20:22;3.50;;;2.10;;
39782;SDS011;25462;51.164;17.100;2023-04-01T12:25:49;3.60;;;1.90;;
39782;SDS011;25462;51.164;17.100;2023-04-01T12:41:46;2.90;;;1.50;;
39782;SDS011;25462;51.164;17.100;2023-04-01T13:03:46;3.10;;;1.80;;
39782;SDS011;25462;51.164;17.100;2023-04-01T13:09:21;3.30;;;1.30;;
39782;SDS011;25462;51.164;17.100;2023-04-01T13:20:06;5.40;;;1.50;;
39782;SDS011;25462;51.164;17.100;2023-04-01T13:30:40;6.10;;;1.40;;
39782;SDS011;25462;51.164;17.100;2023-04-01T13:35:59;2.20;;;1.40;;
39782;SDS011;25462;51.164;17.100;2023-04-01T14:08:54;2.60;;;1.40;;
39782;SDS011;25462;51.164;17.100;2023-04-01T14:41:33;2.30;;;1.50;;
39782;SDS011;25462;51.164;17.100;2023-04-01T14:52:59;4.70;;;3.10;;
39782;SDS011;25462;51.164;17.100;2023-04-01T14:58:24;3.60;;;2.10;;
39782;SDS011;25462;51.164;17.100;2023-04-01T15:15:27;4.90;;;2.20;;
39782;SDS011;25462;51.164;17.100;2023-04-01T15:26:07;9.60;;;6.80;;
39782;SDS011;25462;51.164;17.100;2023-04-01T15:46:57;17.70;;;10.20;;
39782;SDS011;25462;51.164;17.100;2023-04-01T15:57:32;13.50;;;10.20;;
39782;SDS011;25462;51.164;17.100;2023-04-01T16:13:37;21.30;;;11.80;;
39782;SDS011;25462;51.164;17.100;2023-04-01T16:18:57;18.90;;;12.50;;
39782;SDS011;25462;51.164;17.100;2023-04-01T16:29:38;19.00;;;12.60;;
39782;SDS011;25462;51.164;17.100;2023-04-01T16:35:12;17.70;;;12.70;;
39782;SDS011;25462;51.164;17.100;2023-04-01T17:05:10;23.00;;;16.20;;
39782;SDS011;25462;51.164;17.100;2023-04-01T18:10:20;34.20;;;22.40;;
39782;SDS011;25462;51.164;17.100;2023-04-01T18:15:52;40.20;;;24.80;;
39782;SDS011;25462;51.164;17.100;2023-04-01T18:26:37;41.90;;;26.50;;
39782;SDS011;25462;51.164;17.100;2023-04-01T18:31:54;42.20;;;26.40;;
39782;SDS011;25462;51.164;17.100;2023-04-01T18:37:22;38.90;;;25.20;;
39782;SDS011;25462;51.164;17.100;2023-04-01T18:48:17;46.40;;;26.60;;
39782;SDS011;25462;51.164;17.100;2023-04-01T18:53:49;50.60;;;27.40;;
39782;SDS011;25462;51.164;17.100;2023-04-01T19:09:45;42.00;;;26.90;;
39782;SDS011;25462;51.164;17.100;2023-04-01T19:31:28;40.40;;;24.20;;
39782;SDS011;25462;51.164;17.100;2023-04-01T19:36:47;39.00;;;24.50;;
39782;SDS011;25462;51.164;17.100;2023-04-01T19:52:39;37.60;;;25.00;;
39782;SDS011;25462;51.164;17.100;2023-04-01T19:57:59;39.00;;;25.20;;
39782;SDS011;25462;51.164;17.100;2023-04-01T20:19:52;43.70;;;27.40;;
39782;SDS011;25462;51.164;17.100;2023-04-01T20:30:55;44.80;;;29.90;;
39782;SDS011;25462;51.164;17.100;2023-04-01T20:53:04;46.30;;;29.00;;
39782;SDS011;25462;51.164;17.100;2023-04-01T21:09:31;49.00;;;32.20;;
39782;SDS011;25462;51.164;17.100;2023-04-01T21:36:31;51.00;;;33.30;;
39782;SDS011;25462;51.164;17.100;2023-04-01T22:14:09;56.90;;;32.70;;
39782;SDS011;25462;51.164;17.100;2023-04-01T22:30:22;48.00;;;29.00;;
39782;SDS011;25462;51.164;17.100;2023-04-01T23:02:04;36.00;;;23.80;;
39782;SDS011;25462;51.164;17.100;2023-04-01T23:07:35;31.70;;;23.90;;
39782;SDS011;25462;51.164;17.100;2023-04-01T23:13:19;28.30;;;21.20;;
39782;SDS011;25462;51.164;17.100;2023-04-01T23:24:01;23.10;;;18.10;;
39782;SDS011;25462;51.164;17.100;2023-04-01T23:29:16;25.10;;;18.40;;
39782;SDS011;25462;51.164;17.100;2023-04-01T23:34:56;24.30;;;17.60;;
39782;SDS011;25462;51.164;17.100;2023-04-01T23:39:53;20.70;;;16.30;;
39782;SDS011;25462;51.164;17.100;2023-04-01T23:44:58;22.10;;;16.90;;
39782;SDS011;25462;51.164;17.100;2023-04-01T23:55:26;22.30;;;16.00;;
